Time;durP1;ratioP1;P1;durP2;ratioP2;P2;SDS_P1;SDS_P2;PMS_P1;PMS_P2;Temp;Humidity;BMP_temperature;BMP_pressure;BME280_temperature;BME280_humidity;BME280_pressure;Samples;Min_cycle;Max_cycle;Signal;HPM_P1;HPM_P2
2022/02/25 00:01:26;;;;;;;2.75;0.82;;;;;;;6.40;86.63;98389.25;4120992;28;20216;-90
2022/02/25 00:03:31;;;;;;;3.63;0.80;;;;;;;6.40;86.60;98384.91;4121357;28;20212;-88
2022/02/25 00:05:34;;;;;;;2.03;0.98;;;;;;;6.42;86.60;98387.41;4130859;28;22349;-89
2022/02/25 00:07:37;;;;;;;1.33;1.20;;;;;;;6.45;86.30;98392.44;4121423;28;20262;-88
2022/02/25 00:09:40;;;;;;;2.15;0.93;;;;;;;6.44;86.22;98385.63;4124232;28;20266;-90
2022/02/25 00:11:43;;;;;;;1.65;0.90;;;;;;;6.44;86.18;98396.81;4118432;28;20262;-88
2022/02/25 00:13:47;;;;;;;2.90;0.95;;;;;;;6.45;86.01;98405.41;4110783;28;20228;-89
2022/02/25 00:15:50;;;;;;;2.65;1.00;;;;;;;6.40;85.27;98403.03;4124100;28;20204;-89
2022/02/25 00:17:53;;;;;;;1.90;0.90;;;;;;;6.37;84.98;98398.00;4109321;28;20205;-90
2022/02/25 00:19:58;;;;;;;6.30;1.20;;;;;;;6.34;84.20;98392.97;4126561;28;20204;-89
2022/02/25 00:22:01;;;;;;;2.80;1.48;;;;;;;6.32;84.20;98394.78;4120872;28;20213;-89
2022/02/25 00:24:05;;;;;;;1.60;0.82;;;;;;;6.32;84.31;98389.59;4127169;28;20201;-89
2022/02/25 00:26:08;;;;;;;2.83;1.00;;;;;;;6.32;83.61;98393.97;4133678;28;20222;-87
2022/02/25 00:28:11;;;;;;;3.55;1.00;;;;;;;6.28;83.23;98406.19;4123946;28;20300;-89
2022/02/25 00:30:15;;;;;;;4.78;1.20;;;;;;;6.25;82.72;98411.50;4123205;28;20799;-89
2022/02/25 00:32:18;;;;;;;3.17;1.00;;;;;;;6.17;83.03;98418.78;4122784;28;20248;-90
2022/02/25 00:34:21;;;;;;;1.70;0.95;;;;;;;6.17;83.11;98412.78;4121428;28;20250;-91
2022/02/25 00:36:26;;;;;;;3.28;1.02;;;;;;;6.22;82.69;98414.28;4130096;28;20206;-90
2022/02/25 00:38:29;;;;;;;2.00;1.00;;;;;;;6.18;83.18;98423.06;4109463;28;20206;-87
2022/02/25 00:40:32;;;;;;;3.00;1.40;;;;;;;6.17;82.95;98420.56;4126068;28;20211;-89
2022/02/25 00:42:35;;;;;;;2.00;1.02;;;;;;;6.19;83.01;98435.13;4104750;28;20593;-90
2022/02/25 00:44:38;;;;;;;3.55;1.20;;;;;;;6.13;82.67;98432.81;4135276;28;20245;-91
2022/02/25 00:46:42;;;;;;;2.15;0.90;;;;;;;6.08;82.66;98430.50;4120599;28;20257;-89
2022/02/25 00:48:45;;;;;;;4.40;1.00;;;;;;;6.05;82.04;98443.56;4119970;28;20215;-89
2022/02/25 00:50:48;;;;;;;1.60;0.90;;;;;;;6.00;82.57;98450.69;4187652;28;20287;-90
2022/02/25 00:52:53;;;;;;;3.83;1.20;;;;;;;6.00;82.53;98446.38;4117287;28;20239;-90
2022/02/25 00:54:57;;;;;;;2.60;1.30;;;;;;;5.93;82.64;98457.06;4120889;28;20227;-90
2022/02/25 00:57:00;;;;;;;3.38;1.30;;;;;;;5.96;81.89;98462.09;4100735;28;20609;-90
2022/02/25 00:59:03;;;;;;;1.58;0.82;;;;;;;5.97;81.62;98464.63;4125057;28;20208;-90
2022/02/25 01:01:06;;;;;;;2.55;1.58;;;;;;;5.90;81.91;98468.38;4123350;28;20215;-91
2022/02/25 01:03:09;;;;;;;2.45;1.40;;;;;;;5.87;82.44;98463.34;4123696;28;20652;-89
2022/02/25 01:05:13;;;;;;;4.43;1.33;;;;;;;5.89;82.08;98471.03;4119803;28;20212;-89
2022/02/25 01:07:16;;;;;;;2.20;1.27;;;;;;;5.87;82.07;98472.84;4125922;28;20209;-90
2022/02/25 01:09:21;;;;;;;3.05;1.38;;;;;;;5.87;82.18;98470.28;4134624;28;20212;-90
2022/02/25 01:11:24;;;;;;;2.40;1.58;;;;;;;5.80;82.01;98476.59;4127549;28;20322;-89
2022/02/25 01:13:27;;;;;;;1.77;1.23;;;;;;;5.78;82.45;98476.66;4119494;28;20212;-88
2022/02/25 01:15:30;;;;;;;2.50;1.35;;;;;;;5.80;82.31;98480.06;4108736;28;20220;-90
2022/02/25 01:17:33;;;;;;;2.60;1.10;;;;;;;5.79;82.40;98485.28;4123303;28;20223;-89
2022/02/25 01:19:37;;;;;;;4.30;1.70;;;;;;;5.80;82.46;98486.97;4134331;28;20690;-86
2022/02/25 01:21:40;;;;;;;3.10;1.30;;;;;;;5.79;82.66;98495.66;4120748;28;20223;-87
2022/02/25 01:23:47;;;;;;;2.45;1.55;;;;;;;5.74;82.43;98494.97;4132762;28;20220;-90
2022/02/25 01:25:51;;;;;;;2.78;1.60;;;;;;;5.74;82.82;98479.47;4120093;28;20197;-90
2022/02/25 01:27:54;;;;;;;2.55;1.52;;;;;;;5.73;83.31;98485.53;4119192;28;20209;-89
2022/02/25 01:29:57;;;;;;;3.78;1.88;;;;;;;5.80;82.85;98492.13;4120888;28;20208;-89
2022/02/25 01:32:00;;;;;;;3.28;1.35;;;;;;;5.71;83.09;98492.50;4118630;28;20265;-89
2022/02/25 01:34:03;;;;;;;4.57;1.40;;;;;;;5.69;82.61;98489.97;4127235;28;20248;-90
2022/02/25 01:36:06;;;;;;;5.88;1.83;;;;;;;5.65;83.13;98487.56;4115338;28;20225;-90
2022/02/25 01:38:09;;;;;;;2.10;1.25;;;;;;;5.59;82.99;98498.19;4122681;28;20255;-89
2022/02/25 01:40:13;;;;;;;3.95;1.90;;;;;;;5.53;82.88;98495.84;4118275;28;20269;-89
2022/02/25 01:42:20;;;;;;;3.72;1.85;;;;;;;5.50;82.43;98503.75;4117451;28;20266;-89
2022/02/25 01:44:24;;;;;;;2.83;1.60;;;;;;;5.46;82.69;98511.69;4117868;28;20227;-91
2022/02/25 01:46:27;;;;;;;2.55;1.75;;;;;;;5.41;82.27;98509.31;4121759;28;20204;-88
2022/02/25 01:48:30;;;;;;;4.30;1.80;;;;;;;5.40;83.13;98515.38;4116587;28;20584;-90
2022/02/25 01:50:35;;;;;;;4.90;1.60;;;;;;;5.41;81.92;98519.66;4120213;28;20257;-87
2022/02/25 01:52:45;;;;;;;3.95;1.30;;;;;;;5.33;82.17;98526.88;4122325;28;20205;-90
2022/02/25 01:54:48;;;;;;;3.78;1.70;;;;;;;5.26;82.29;98519.44;4125816;28;20230;-88
2022/02/25 01:56:51;;;;;;;4.07;1.52;;;;;;;5.25;82.12;98534.09;4122829;28;20624;-89
2022/02/25 01:58:56;;;;;;;2.25;1.30;;;;;;;5.25;81.81;98533.28;4119121;28;20623;-90
2022/02/25 02:00:59;;;;;;;3.85;1.38;;;;;;;5.19;81.78;98529.19;4118927;28;20726;-86
2022/02/25 02:03:04;;;;;;;4.57;1.88;;;;;;;5.19;81.41;98534.34;4116457;28;20609;-90
2022/02/25 02:05:08;;;;;;;2.50;1.02;;;;;;;5.14;80.78;98541.47;4105249;28;20220;-89
2022/02/25 02:07:11;;;;;;;2.25;1.50;;;;;;;5.14;81.35;98535.44;4120440;28;20209;-90
2022/02/25 02:09:17;;;;;;;2.75;1.30;;;;;;;5.14;80.89;98545.75;4115052;28;20211;-90
2022/02/25 02:11:39;;;;;;;3.15;1.42;;;;;;;5.16;81.14;98547.41;4126041;28;20196;-87
2022/02/25 02:13:42;;;;;;;5.05;1.23;;;;;;;5.12;81.25;98546.75;4120081;28;20281;-89
2022/02/25 02:15:46;;;;;;;5.75;1.20;;;;;;;5.08;80.42;98550.34;4120131;28;20240;-90
2022/02/25 02:17:49;;;;;;;2.90;1.25;;;;;;;5.09;80.14;98562.38;4122205;28;20209;-89
2022/02/25 02:19:52;;;;;;;3.05;1.40;;;;;;;5.11;79.76;98561.38;4118248;28;20209;-90
2022/02/25 02:21:57;;;;;;;4.88;1.70;;;;;;;5.07;80.94;98566.78;4119936;28;20254;-89
2022/02/25 02:24:05;;;;;;;2.50;1.40;;;;;;;5.07;79.93;98564.19;4117701;28;20212;-89
2022/02/25 02:26:08;;;;;;;4.22;1.10;;;;;;;5.05;80.31;98569.41;4119845;28;20194;-89
2022/02/25 02:28:21;;;;;;;2.08;1.30;;;;;;;5.06;81.26;98567.66;4124283;28;20206;-90
2022/02/25 02:30:25;;;;;;;2.60;1.40;;;;;;;5.05;81.21;98573.72;4132712;28;20203;-87
2022/02/25 02:32:31;;;;;;;4.35;1.50;;;;;;;5.02;80.30;98579.00;4103418;28;20867;-89
2022/02/25 02:34:34;;;;;;;2.75;1.50;;;;;;;5.00;80.94;98586.00;4120668;28;20206;-88
2022/02/25 02:36:37;;;;;;;3.85;1.38;;;;;;;4.99;81.40;98586.88;4120150;28;20623;-90
2022/02/25 02:38:41;;;;;;;4.78;1.52;;;;;;;4.97;80.62;98586.09;4116294;28;20206;-89
2022/02/25 02:40:46;;;;;;;2.40;1.17;;;;;;;4.98;80.75;98590.38;4119957;28;20251;-90
2022/02/25 02:42:49;;;;;;;4.80;1.65;;;;;;;4.98;80.75;98591.22;4124468;28;20551;-89
2022/02/25 02:44:52;;;;;;;3.45;1.60;;;;;;;4.97;80.56;98601.59;4123358;28;20795;-89
2022/02/25 02:46:58;;;;;;;4.38;1.38;;;;;;;4.97;79.90;98599.03;4123779;28;20220;-90
2022/02/25 02:49:03;;;;;;;2.60;1.40;;;;;;;4.99;80.52;98603.25;4116426;28;20221;-89
2022/02/25 02:51:06;;;;;;;2.50;1.10;;;;;;;4.99;80.26;98608.41;4100637;28;20645;-89
2022/02/25 02:53:14;;;;;;;2.42;1.05;;;;;;;4.96;80.41;98605.94;4119261;28;20212;-86
2022/02/25 02:55:17;;;;;;;3.50;1.23;;;;;;;4.87;80.88;98614.03;4128054;28;20706;-89
2022/02/25 02:57:22;;;;;;;4.90;1.10;;;;;;;4.85;80.84;98609.81;4123271;28;20207;-90
2022/02/25 02:59:25;;;;;;;3.65;1.30;;;;;;;4.85;81.30;98613.25;4134212;28;20739;-90
2022/02/25 03:01:34;;;;;;;3.85;1.15;;;;;;;4.86;80.85;98616.69;4134936;28;20211;-88
2022/02/25 03:03:37;;;;;;;2.45;0.70;;;;;;;4.87;80.88;98615.75;4122747;28;20210;-89
2022/02/25 03:05:43;;;;;;;5.75;1.20;;;;;;;4.87;81.21;98618.34;4125969;28;20262;-90
2022/02/25 03:07:47;;;;;;;2.72;0.90;;;;;;;4.86;80.87;98627.03;4123661;28;20274;-89
2022/02/25 03:09:50;;;;;;;2.05;1.10;;;;;;;4.86;80.75;98625.25;4121761;28;20215;-90
2022/02/25 03:11:54;;;;;;;4.85;1.27;;;;;;;4.86;79.96;98624.44;4121708;28;20211;-88
2022/02/25 03:13:59;;;;;;;4.13;1.23;;;;;;;4.86;80.50;98632.19;4121841;28;20584;-90
2022/02/25 03:16:02;;;;;;;3.35;1.00;;;;;;;4.84;80.11;98636.53;4120765;28;20286;-90
2022/02/25 03:18:07;;;;;;;2.05;0.90;;;;;;;4.85;80.34;98640.81;4106571;28;20203;-88
2022/02/25 03:20:11;;;;;;;5.53;1.20;;;;;;;4.85;80.41;98638.25;4123616;28;20212;-90
2022/02/25 03:22:18;;;;;;;3.75;1.00;;;;;;;4.86;80.53;98639.94;4120276;28;20216;-87
2022/02/25 03:24:30;;;;;;;5.05;1.20;;;;;;;4.85;80.35;98639.06;4133728;28;20212;-89
2022/02/25 03:26:33;;;;;;;2.17;1.50;;;;;;;4.87;80.44;98644.19;4103747;28;20216;-89
2022/02/25 03:28:36;;;;;;;2.90;1.45;;;;;;;4.90;80.20;98644.06;4123096;28;20617;-89
2022/02/25 03:30:41;;;;;;;1.63;0.90;;;;;;;4.92;80.63;98650.88;4104529;28;20930;-90
2022/02/25 03:32:44;;;;;;;3.80;1.10;;;;;;;4.95;80.31;98653.34;4122843;28;20211;-88
2022/02/25 03:34:48;;;;;;;2.63;1.13;;;;;;;4.95;81.23;98643.00;4124751;28;20222;-87
2022/02/25 03:36:53;;;;;;;4.45;1.52;;;;;;;4.96;80.60;98649.00;4107639;28;20242;-89
2022/02/25 03:38:56;;;;;;;4.15;1.30;;;;;;;4.97;80.57;98654.13;4116810;28;20243;-90
2022/02/25 03:40:59;;;;;;;2.28;0.90;;;;;;;4.97;80.06;98648.13;4108208;28;20223;-90
2022/02/25 03:43:02;;;;;;;3.85;1.10;;;;;;;4.97;81.29;98650.69;4118091;28;20220;-90
2022/02/25 03:45:07;;;;;;;4.30;1.35;;;;;;;4.96;80.86;98654.19;4101584;28;20219;-90
2022/02/25 03:47:12;;;;;;;2.90;1.20;;;;;;;4.97;81.43;98651.53;4120739;28;20609;-89
2022/02/25 03:49:15;;;;;;;2.10;0.88;;;;;;;4.98;81.71;98644.66;4115828;28;20910;-87
2022/02/25 03:51:21;;;;;;;1.98;0.80;;;;;;;4.95;80.98;98647.34;4109474;28;20202;-86
2022/02/25 03:53:24;;;;;;;2.15;1.10;;;;;;;4.92;82.08;98647.47;4120388;28;20207;-88
2022/02/25 03:55:27;;;;;;;2.22;1.15;;;;;;;4.89;81.63;98657.91;4121791;28;20248;-90
2022/02/25 03:57:30;;;;;;;4.25;1.30;;;;;;;4.89;82.18;98660.50;4113057;28;20223;-90
2022/02/25 03:59:33;;;;;;;2.05;1.10;;;;;;;4.88;82.29;98661.38;4123713;28;20207;-89
2022/02/25 04:01:36;;;;;;;3.47;1.33;;;;;;;4.90;81.58;98662.16;4129251;28;20205;-91
2022/02/25 04:03:41;;;;;;;2.45;1.08;;;;;;;4.90;82.69;98664.75;4122517;28;20242;-89
2022/02/25 04:05:44;;;;;;;2.63;1.00;;;;;;;4.90;82.46;98668.19;4118782;28;20683;-89
2022/02/25 04:07:48;;;;;;;3.30;1.48;;;;;;;4.89;82.05;98658.75;4122014;28;20220;-90
2022/02/25 04:09:51;;;;;;;3.67;1.40;;;;;;;4.89;82.15;98670.81;4106409;28;20211;-90
2022/02/25 04:11:55;;;;;;;3.63;1.35;;;;;;;4.90;81.09;98677.66;4122667;28;20598;-89
2022/02/25 04:13:58;;;;;;;3.75;1.30;;;;;;;4.88;81.69;98680.28;4125420;28;20209;-89
2022/02/25 04:16:03;;;;;;;4.88;1.58;;;;;;;4.87;81.96;98681.22;4132040;28;20309;-87
2022/02/25 04:18:06;;;;;;;3.55;1.60;;;;;;;4.87;81.06;98693.28;4121926;28;20216;-90
2022/02/25 04:20:11;;;;;;;5.78;1.52;;;;;;;4.88;82.24;98700.13;4118053;28;20550;-91
2022/02/25 04:22:14;;;;;;;3.97;1.40;;;;;;;4.85;82.24;98687.31;4108611;28;20225;-85
2022/02/25 04:24:18;;;;;;;5.15;2.00;;;;;;;4.83;81.84;98695.13;4129439;28;20232;-90
2022/02/25 04:26:21;;;;;;;6.60;1.48;;;;;;;4.83;83.34;98699.47;4124088;28;20202;-88
2022/02/25 04:28:24;;;;;;;3.42;1.50;;;;;;;4.81;82.86;98699.53;4119057;28;20238;-90
2022/02/25 04:30:28;;;;;;;3.53;1.40;;;;;;;4.80;81.14;98702.16;4117784;28;20211;-90
2022/02/25 04:32:31;;;;;;;2.63;1.20;;;;;;;4.81;82.12;98701.25;4106921;28;20260;-90
2022/02/25 04:34:34;;;;;;;2.08;1.23;;;;;;;4.83;82.43;98707.22;4121256;28;20208;-89
2022/02/25 04:36:38;;;;;;;3.33;1.10;;;;;;;4.86;81.66;98714.84;4129153;28;20257;-89
2022/02/25 04:38:42;;;;;;;3.95;1.42;;;;;;;4.85;82.71;98708.81;4123300;28;20230;-91
2022/02/25 04:40:45;;;;;;;4.55;1.50;;;;;;;4.86;82.46;98720.84;4104051;28;20945;-88
2022/02/25 04:42:48;;;;;;;4.60;1.50;;;;;;;4.90;83.30;98716.41;4118905;28;20712;-90
2022/02/25 04:44:51;;;;;;;8.90;1.30;;;;;;;4.95;82.27;98720.53;4109763;28;20309;-89
2022/02/25 04:46:54;;;;;;;3.88;1.60;;;;;;;4.95;82.74;98717.13;4103450;28;20204;-88
2022/02/25 04:48:57;;;;;;;5.53;1.70;;;;;;;4.95;82.22;98715.34;4119826;28;20666;-89
2022/02/25 04:51:01;;;;;;;7.28;2.15;;;;;;;4.98;81.96;98719.59;4124296;28;20204;-88
2022/02/25 04:53:05;;;;;;;4.10;2.65;;;;;;;5.00;81.71;98722.94;4118797;28;20226;-89
2022/02/25 04:55:09;;;;;;;6.63;2.28;;;;;;;5.02;82.19;98723.72;4106968;28;20660;-88
2022/02/25 04:57:14;;;;;;;6.40;1.73;;;;;;;5.05;82.43;98731.38;4119027;28;20227;-85
2022/02/25 04:59:17;;;;;;;3.55;1.60;;;;;;;5.06;82.51;98728.72;4120178;28;20510;-87
2022/02/25 05:01:20;;;;;;;5.40;1.27;;;;;;;5.05;81.87;98726.19;4115547;28;20222;-84
2022/02/25 05:03:24;;;;;;;4.68;1.40;;;;;;;5.00;83.27;98726.38;4102372;28;20205;-86
2022/02/25 05:05:27;;;;;;;4.55;1.42;;;;;;;5.00;82.68;98728.13;4122926;28;20204;-88
2022/02/25 05:07:31;;;;;;;2.40;1.30;;;;;;;4.97;82.22;98726.47;4123313;28;20604;-88
2022/02/25 05:09:35;;;;;;;6.05;1.65;;;;;;;4.97;82.97;98730.81;4126409;28;20573;-89
2022/02/25 05:11:38;;;;;;;3.55;1.30;;;;;;;4.96;83.28;98732.56;4116852;28;22138;-87
2022/02/25 05:13:42;;;;;;;3.83;1.55;;;;;;;4.96;83.11;98731.69;4119465;28;20216;-88
2022/02/25 05:20:26;;;;;;;7.85;1.73;;;;;;;4.96;83.30;98727.41;4122426;28;20211;-88
2022/02/25 05:22:30;;;;;;;3.88;1.48;;;;;;;5.01;83.80;98740.97;4118173;28;20212;-87
2022/02/25 05:24:34;;;;;;;2.75;1.33;;;;;;;5.02;82.27;98741.81;4120784;28;20208;-90
2022/02/25 05:26:38;;;;;;;3.75;1.40;;;;;;;5.02;82.61;98745.25;4123641;28;20196;-90
2022/02/25 05:28:41;;;;;;;6.70;2.00;;;;;;;5.02;82.65;98742.69;4123585;28;20604;-90
2022/02/25 05:30:44;;;;;;;3.20;1.40;;;;;;;4.98;82.47;98746.25;4106285;28;20209;-88
2022/02/25 05:32:48;;;;;;;5.32;1.80;;;;;;;4.93;82.97;98749.91;4120145;28;21002;-84
2022/02/25 05:34:51;;;;;;;3.95;2.03;;;;;;;4.89;82.68;98756.09;4109824;28;20209;-88
2022/02/25 05:36:54;;;;;;;5.72;1.80;;;;;;;4.91;84.06;98765.44;4130128;28;20275;-88
2022/02/25 05:38:58;;;;;;;4.13;1.45;;;;;;;4.92;82.56;98766.31;4121891;28;20213;-86
2022/02/25 05:41:01;;;;;;;4.28;1.55;;;;;;;4.93;82.63;98768.84;4104506;28;20295;-85
2022/02/25 05:43:05;;;;;;;5.57;1.65;;;;;;;4.94;83.78;98769.69;4119815;28;20684;-87
2022/02/25 05:45:09;;;;;;;4.60;1.80;;;;;;;4.96;82.75;98762.72;4116410;28;20200;-88
2022/02/25 05:47:13;;;;;;;4.75;1.60;;;;;;;4.99;83.27;98776.38;4099657;28;20242;-83
2022/02/25 05:49:16;;;;;;;4.38;1.55;;;;;;;4.99;83.69;98770.34;4125827;28;20311;-82
2022/02/25 05:51:19;;;;;;;4.05;1.45;;;;;;;5.00;83.36;98775.47;4116243;28;20293;-89
2022/02/25 05:53:22;;;;;;;3.08;1.55;;;;;;;5.00;83.15;98782.38;4120015;28;20729;-83
2022/02/25 05:55:25;;;;;;;4.75;1.40;;;;;;;4.97;82.36;98783.31;4119436;28;20597;-86
2022/02/25 05:57:31;;;;;;;2.85;1.30;;;;;;;5.00;82.51;98783.22;4123815;28;20320;-88
2022/02/25 05:59:36;;;;;;;4.82;1.55;;;;;;;5.03;82.90;98788.28;4110606;28;20234;-85
2022/02/25 06:01:39;;;;;;;2.60;1.30;;;;;;;5.04;83.43;98791.72;4117454;28;20222;-85
2022/02/25 06:03:42;;;;;;;4.40;1.77;;;;;;;5.05;83.13;98789.09;4120617;28;20240;-84
2022/02/25 06:05:45;;;;;;;3.50;1.60;;;;;;;5.04;82.08;98791.72;4140421;28;20645;-86
2022/02/25 06:07:48;;;;;;;2.83;1.42;;;;;;;5.02;82.58;98789.19;4121666;28;20203;-84
2022/02/25 06:09:52;;;;;;;5.55;1.55;;;;;;;5.01;82.66;98787.50;4117570;28;20708;-82
2022/02/25 06:11:56;;;;;;;5.15;1.60;;;;;;;5.03;82.87;98785.69;4124690;28;20724;-84
2022/02/25 06:13:59;;;;;;;5.55;1.92;;;;;;;5.06;82.75;98792.50;4122566;28;20928;-84
2022/02/25 06:16:04;;;;;;;4.15;2.08;;;;;;;5.04;82.37;98789.13;4124676;28;20274;-84
2022/02/25 06:18:07;;;;;;;3.55;2.03;;;;;;;4.99;82.06;98796.19;4120302;28;21054;-85
2022/02/25 06:20:11;;;;;;;7.40;2.30;;;;;;;4.92;81.72;98797.31;4127957;28;20207;-85
2022/02/25 06:22:15;;;;;;;5.05;1.70;;;;;;;4.88;82.48;98787.97;4118518;28;20205;-85
2022/02/25 06:24:18;;;;;;;6.00;2.20;;;;;;;4.87;82.29;98788.88;4124928;28;20241;-86
2022/02/25 06:26:21;;;;;;;8.90;2.25;;;;;;;4.82;81.21;98790.78;4121538;28;20203;-85
2022/02/25 06:28:24;;;;;;;6.18;2.30;;;;;;;4.76;81.80;98801.31;4126305;28;20192;-85
2022/02/25 06:30:27;;;;;;;3.70;2.30;;;;;;;4.68;81.36;98800.75;4134356;28;20234;-85
2022/02/25 06:32:31;;;;;;;6.30;2.55;;;;;;;4.66;80.94;98799.97;4124176;28;20323;-85
2022/02/25 06:34:35;;;;;;;6.70;2.13;;;;;;;4.67;81.61;98805.97;4123639;28;20211;-85
2022/02/25 06:36:40;;;;;;;4.57;2.15;;;;;;;4.73;81.63;98811.75;4125120;28;20193;-85
2022/02/25 06:38:43;;;;;;;5.65;2.22;;;;;;;4.76;80.52;98809.06;4127217;28;20208;-85
2022/02/25 06:40:46;;;;;;;6.40;2.10;;;;;;;4.81;80.65;98814.91;4127865;28;20303;-85
2022/02/25 06:42:49;;;;;;;12.05;2.28;;;;;;;4.96;81.79;98824.72;4135566;28;20708;-83
2022/02/25 06:44:52;;;;;;;6.38;2.00;;;;;;;5.10;81.80;98827.66;4123458;28;20215;-84
2022/02/25 06:46:55;;;;;;;5.20;2.00;;;;;;;5.21;80.81;98827.22;4114659;28;20217;-84
2022/02/25 06:49:00;;;;;;;4.03;1.70;;;;;;;5.33;80.69;98839.72;4119151;28;20236;-84
2022/02/25 06:51:03;;;;;;;4.85;1.70;;;;;;;5.43;79.56;98828.16;4129167;28;20282;-83
2022/02/25 06:53:06;;;;;;;3.22;1.73;;;;;;;5.54;79.70;98833.78;4125226;28;20205;-84
2022/02/25 06:55:10;;;;;;;5.32;1.55;;;;;;;5.63;79.52;98836.03;4104952;28;20216;-86
2022/02/25 06:57:33;;;;;;;6.15;1.80;;;;;;;5.71;79.34;98837.44;4119904;28;20299;-86
2022/02/25 06:59:36;;;;;;;4.55;1.70;;;;;;;5.75;79.62;98840.78;4126623;28;20632;-87
2022/02/25 07:01:39;;;;;;;5.97;2.05;;;;;;;5.85;79.21;98832.63;4123951;28;20726;-86
2022/02/25 07:03:43;;;;;;;10.52;4.50;;;;;;;5.96;79.23;98838.22;4123106;28;20219;-86
2022/02/25 07:05:48;;;;;;;7.05;2.15;;;;;;;6.09;79.88;98840.28;4126645;28;20214;-85
2022/02/25 07:07:51;;;;;;;7.88;1.85;;;;;;;6.26;79.37;98845.66;4125490;28;20597;-85
2022/02/25 07:09:54;;;;;;;4.55;2.15;;;;;;;6.47;77.38;98846.56;4124896;28;20238;-87
2022/02/25 07:11:58;;;;;;;6.75;2.22;;;;;;;6.66;76.97;98856.09;4126552;28;20563;-87
2022/02/25 07:14:01;;;;;;;5.47;2.10;;;;;;;6.84;75.92;98847.56;4125286;28;20208;-87
2022/02/25 07:16:05;;;;;;;5.57;1.90;;;;;;;7.05;76.12;98857.88;4108231;28;20304;-87
2022/02/25 07:18:08;;;;;;;7.20;1.60;;;;;;;7.26;76.88;98867.34;4124474;28;20220;-86
2022/02/25 07:20:12;;;;;;;8.30;1.95;;;;;;;7.44;75.80;98866.56;4126476;28;20591;-86
2022/02/25 07:22:22;;;;;;;6.90;2.05;;;;;;;7.60;76.01;98873.59;4128226;28;20557;-86
2022/02/25 07:24:25;;;;;;;5.40;1.75;;;;;;;7.80;76.44;98870.97;4125840;28;20296;-87
2022/02/25 07:26:32;;;;;;;9.00;2.97;;;;;;;8.00;74.98;98876.94;4132519;28;20215;-84
2022/02/25 07:28:35;;;;;;;7.78;2.53;;;;;;;8.00;74.31;98871.75;4130689;28;20208;-86
2022/02/25 07:30:39;;;;;;;11.82;2.85;;;;;;;7.88;72.85;98877.50;4125962;28;20365;-86
2022/02/25 07:32:42;;;;;;;6.22;3.03;;;;;;;7.72;74.27;98878.25;4121752;28;20219;-86
2022/02/25 07:34:46;;;;;;;6.65;2.60;;;;;;;7.56;73.35;98880.69;4121534;28;20225;-86
2022/02/25 07:36:49;;;;;;;6.85;2.97;;;;;;;7.48;73.31;98884.50;4123037;28;20217;-85
2022/02/25 07:38:53;;;;;;;8.80;3.22;;;;;;;7.44;73.57;98888.13;4128684;28;20254;-86
2022/02/25 07:40:57;;;;;;;7.55;3.17;;;;;;;7.36;73.57;98889.41;4127332;28;20695;-88
2022/02/25 07:43:00;;;;;;;4.70;2.25;;;;;;;7.30;73.97;98884.47;4125246;28;20205;-87
2022/02/25 07:45:04;;;;;;;4.72;2.20;;;;;;;7.21;74.17;98888.28;4122153;28;20211;-86
2022/02/25 07:47:07;;;;;;;6.45;2.80;;;;;;;7.23;74.40;98894.28;4126836;28;20257;-85
2022/02/25 07:49:11;;;;;;;8.25;2.80;;;;;;;7.26;73.46;98895.88;4117250;28;20231;-86
2022/02/25 07:51:14;;;;;;;10.02;2.35;;;;;;;7.50;72.95;98898.25;4121186;28;20236;-86
2022/02/25 07:53:18;;;;;;;6.45;2.65;;;;;;;7.81;74.47;98889.06;4116633;28;20234;-86
2022/02/25 07:55:22;;;;;;;9.25;2.42;;;;;;;8.07;71.80;98896.53;4106268;28;20209;-86
2022/02/25 07:57:25;;;;;;;5.95;2.42;;;;;;;8.26;71.05;98890.44;4122831;28;20553;-87
2022/02/25 07:59:48;;;;;;;12.90;2.40;;;;;;;8.45;71.09;98897.31;4122148;28;20221;-85
2022/02/25 08:01:51;;;;;;;5.20;2.33;;;;;;;8.48;72.06;98902.38;4121770;28;20512;-85
2022/02/25 08:03:55;;;;;;;8.82;2.35;;;;;;;8.31;72.71;98905.81;4127615;28;20608;-85
2022/02/25 08:05:58;;;;;;;4.35;2.50;;;;;;;8.22;71.25;98912.28;4124425;28;20210;-85
2022/02/25 08:08:02;;;;;;;5.20;1.67;;;;;;;8.06;72.23;98919.06;4121932;28;20208;-84
2022/02/25 08:10:06;;;;;;;5.55;2.20;;;;;;;8.16;72.48;98906.53;4124091;28;20200;-83
2022/02/25 08:12:15;;;;;;;6.38;2.45;;;;;;;8.32;71.33;98910.13;4117905;28;20292;-84
2022/02/25 08:14:18;;;;;;;3.53;1.90;;;;;;;8.31;70.67;98909.25;4119190;28;20254;-84
2022/02/25 08:16:22;;;;;;;4.82;2.15;;;;;;;8.08;71.26;98912.03;4123802;28;20243;-84
2022/02/25 08:18:25;;;;;;;7.28;2.35;;;;;;;8.29;71.56;98913.69;4109322;28;20215;-84
2022/02/25 08:20:28;;;;;;;4.43;1.75;;;;;;;8.22;70.68;98909.66;4120379;28;20565;-84
2022/02/25 08:22:31;;;;;;;5.95;2.53;;;;;;;8.11;72.22;98909.34;4121981;28;20276;-83
2022/02/25 08:24:35;;;;;;;6.35;2.03;;;;;;;8.28;72.42;98909.41;4116542;28;20201;-83
2022/02/25 08:26:38;;;;;;;7.40;2.40;;;;;;;8.52;71.35;98901.31;4118952;28;20225;-84
2022/02/25 08:28:42;;;;;;;7.13;2.33;;;;;;;8.81;71.94;98912.91;4121278;28;20269;-84
2022/02/25 08:30:46;;;;;;;6.18;2.45;;;;;;;9.15;70.21;98912.03;4121647;28;20209;-83
2022/02/25 08:32:50;;;;;;;4.47;2.25;;;;;;;9.33;69.98;98907.69;4125849;28;20249;-83
2022/02/25 08:34:53;;;;;;;8.07;2.47;;;;;;;9.10;69.94;98911.41;4128988;28;20202;-83
2022/02/25 08:36:57;;;;;;;6.97;1.75;;;;;;;9.06;70.21;98907.28;4108177;28;20241;-81
2022/02/25 08:39:00;;;;;;;4.80;2.67;;;;;;;9.22;71.60;98907.38;4117141;28;20287;-84
2022/02/25 08:41:03;;;;;;;8.65;2.30;;;;;;;9.37;70.36;98902.25;4122144;28;21103;-83
2022/02/25 08:43:09;;;;;;;5.55;2.45;;;;;;;9.24;67.12;98902.94;4121153;28;20715;-83
2022/02/25 08:45:15;;;;;;;8.60;2.60;;;;;;;9.02;68.74;98907.50;4120594;28;20706;-82
2022/02/25 08:47:19;;;;;;;6.00;2.70;;;;;;;9.25;68.49;98905.47;4124994;28;20685;-83
2022/02/25 08:49:22;;;;;;;7.90;1.80;;;;;;;9.14;68.80;98905.16;4125219;28;20648;-83
2022/02/25 08:51:25;;;;;;;9.10;2.10;;;;;;;9.17;68.62;98905.00;4119803;28;20716;-83
2022/02/25 08:53:28;;;;;;;4.95;1.75;;;;;;;9.46;70.05;98905.22;4119418;28;20209;-83
2022/02/25 08:55:31;;;;;;;17.40;10.02;;;;;;;9.72;67.56;98903.88;4118591;28;20213;-84
2022/02/25 08:57:37;;;;;;;4.22;1.50;;;;;;;9.77;67.66;98902.69;4122029;28;20228;-84
2022/02/25 08:59:40;;;;;;;4.88;1.70;;;;;;;10.02;67.94;98890.94;4124788;28;20281;-83
2022/02/25 09:01:44;;;;;;;3.63;1.80;;;;;;;10.02;68.05;98890.94;4117978;28;20215;-83
2022/02/25 09:03:47;;;;;;;7.05;1.88;;;;;;;10.09;67.52;98894.91;4125434;28;20215;-83
2022/02/25 09:05:50;;;;;;;6.00;2.13;;;;;;;10.23;66.65;98887.19;4122709;28;20248;-83
2022/02/25 09:07:55;;;;;;;5.30;1.50;;;;;;;10.08;66.23;98895.00;4104595;28;20624;-83
2022/02/25 09:10:00;;;;;;;5.50;1.93;;;;;;;9.97;66.16;98882.53;4117872;28;20206;-83
2022/02/25 09:12:09;;;;;;;7.93;1.83;;;;;;;10.03;66.29;98891.81;4117367;28;20630;-84
2022/02/25 09:14:13;;;;;;;6.00;1.77;;;;;;;9.85;66.17;98892.75;4121224;28;20208;-83
2022/02/25 09:16:16;;;;;;;11.20;1.67;;;;;;;9.75;66.76;98883.72;4116638;28;20639;-84
2022/02/25 09:18:22;;;;;;;8.25;1.90;;;;;;;9.45;64.94;98894.88;4121256;28;20653;-81
2022/02/25 09:20:28;;;;;;;5.83;1.80;;;;;;;9.31;66.15;98892.13;4120061;28;20233;-83
2022/02/25 09:22:31;;;;;;;5.00;1.83;;;;;;;9.26;65.66;98907.16;4120110;28;20713;-83
2022/02/25 09:24:35;;;;;;;8.83;1.80;;;;;;;9.40;65.92;98904.69;4122409;28;20629;-83
2022/02/25 09:26:38;;;;;;;5.57;1.75;;;;;;;9.38;64.56;98892.66;4124047;28;20719;-83
2022/02/25 09:28:41;;;;;;;4.20;1.93;;;;;;;9.34;65.79;98896.34;4125070;28;20303;-83
2022/02/25 09:30:47;;;;;;;8.02;2.20;;;;;;;9.37;64.72;98903.97;4122167;28;20640;-84
2022/02/25 09:32:51;;;;;;;3.97;1.47;;;;;;;9.40;64.35;98902.09;4122446;28;20206;-86
2022/02/25 09:34:55;;;;;;;8.70;1.53;;;;;;;9.24;65.29;98893.34;4117461;28;21063;-84
2022/02/25 09:36:59;;;;;;;8.57;2.10;;;;;;;9.07;65.29;98892.53;4118556;28;21157;-85
2022/02/25 09:39:02;;;;;;;3.70;1.87;;;;;;;9.41;66.06;98901.13;4126659;28;20635;-83
2022/02/25 09:41:06;;;;;;;4.82;1.50;;;;;;;9.79;66.19;98895.66;4118403;28;20757;-87
2022/02/25 09:43:12;;;;;;;6.87;2.37;;;;;;;9.85;65.02;98890.13;4128346;28;20217;-86
2022/02/25 09:45:16;;;;;;;5.63;1.80;;;;;;;9.50;65.12;98890.25;4130383;28;20745;-86
2022/02/25 09:47:20;;;;;;;5.77;1.70;;;;;;;9.35;66.03;98892.81;4120387;28;21262;-85
2022/02/25 09:49:24;;;;;;;6.63;1.53;;;;;;;9.45;65.90;98887.91;4123407;28;20631;-86
2022/02/25 09:51:30;;;;;;;9.83;1.40;;;;;;;9.48;65.43;98890.34;4124509;28;21041;-84
2022/02/25 09:53:35;;;;;;;10.27;1.50;;;;;;;9.44;64.35;98895.78;4121611;28;20688;-84
2022/02/25 09:55:38;;;;;;;11.33;1.70;;;;;;;9.38;65.39;98889.16;4129565;28;20645;-86